»·PEaware :: PSV335 KYKM-KBFI

PSV335 :: KYKM-KBFI

FLIGHT INFORMATION

Flight Status: Arrived
Operator:
Power Set Virtual (website)
More flights by this operator :: More flights under this callsign
Pilot: Juan B. (20291)
Aircraft: BEECH AIRCRAFT PREMIER
(PRM1)
More flights by this aircraft type
Origin: KYKM Yakima Air Term/Mcallister
United States
Destination: KBFI Boeing Field/King Co Intl
United States
More flights between these airports :: More routes between these airports
Route: YKM V4 CHINS CHINS4
File this flight plan on PilotEdge
Remarks:
Altitude:
(Current/Filed)
16,000ft
Speed:
(Current/Filed)
345kts
Departed: 07-Apr-20 02:26 PM
Arrived: 07-Apr-20 03:01 PM
Distance/Time
Traveled:
93nm/0:35
Distance/Time
To Go:
Arrived

Flight Plot

Page will automatically refresh every two minutes.


Map Options




Map Legend


Flown Route
Filed Route
Departure Airport
Arrival Airport
Navaid (VOR, NDB)
Fix

Horizontal Profiles

Position Reports

Time Latitude Longitude Heading Altitude Ground
Speed
07-Apr-20 14:13 46.572742 -120.553176 287 1089ft 0kts
07-Apr-20 14:14 46.572742 -120.553176 287 1089ft 0kts
07-Apr-20 14:15 46.572742 -120.553176 287 1089ft 0kts
07-Apr-20 14:16 46.572742 -120.553176 287 1089ft 0kts
07-Apr-20 14:17 46.572742 -120.553176 287 1089ft 0kts
07-Apr-20 14:18 46.572742 -120.553176 287 1089ft 0kts
07-Apr-20 14:19 46.572742 -120.553176 287 1089ft 0kts
07-Apr-20 14:20 46.572754 -120.553250 278 1089ft 3kts
07-Apr-20 14:21 46.571775 -120.551819 110 1087ft 16kts
07-Apr-20 14:22 46.570008 -120.544748 110 1076ft 20kts
07-Apr-20 14:23 46.567890 -120.536280 111 1059ft 21kts
07-Apr-20 14:24 46.565718 -120.532302 290 1051ft 12kts
07-Apr-20 14:25 46.586190 -120.580306 337 2724ft 219kts
07-Apr-20 14:26 46.643704 -120.615293 335 7061ft 231kts
07-Apr-20 14:27 46.678657 -120.557545 103 10015ft 287kts
07-Apr-20 14:28 46.643180 -120.460354 176 11000ft 278kts
07-Apr-20 14:30 46.597826 -120.540985 282 12031ft 337kts
07-Apr-20 14:31 46.648278 -120.628194 304 16012ft 299kts
07-Apr-20 14:32 46.703574 -120.737545 305 16019ft 352kts
07-Apr-20 14:33 46.761032 -120.851586 305 16015ft 348kts
07-Apr-20 14:34 46.817739 -120.965395 304 16011ft 344kts
07-Apr-20 14:35 46.871029 -121.078876 304 16008ft 334kts
07-Apr-20 14:36 46.922799 -121.189599 305 16005ft 326kts
07-Apr-20 14:37 46.973077 -121.297357 305 16067ft 319kts
07-Apr-20 14:38 47.022580 -121.403973 305 16147ft 314kts
07-Apr-20 14:39 47.069085 -121.504528 305 16186ft 298kts
07-Apr-20 14:40 47.113156 -121.600160 305 16195ft 297kts
07-Apr-20 14:41 47.154983 -121.691251 304 15209ft 295kts
07-Apr-20 14:42 47.193911 -121.776270 304 14123ft 295kts
07-Apr-20 14:43 47.230745 -121.856967 304 13088ft 294kts
07-Apr-20 14:44 47.268179 -121.939234 304 12058ft 275kts
07-Apr-20 14:45 47.299853 -122.008999 305 12007ft 251kts
07-Apr-20 14:45 47.325811 -122.066307 304 12008ft 257kts
07-Apr-20 14:47 47.364146 -122.150124 305 11755ft 250kts
07-Apr-20 14:48 47.394384 -122.215387 305 10141ft 242kts
07-Apr-20 14:48 47.421257 -122.272731 305 8297ft 244kts
07-Apr-20 14:50 47.455108 -122.343701 305 7018ft 244kts
07-Apr-20 14:51 47.495759 -122.430008 306 7005ft 245kts
07-Apr-20 14:51 47.529507 -122.495261 325 6827ft 228kts
07-Apr-20 14:53 47.568054 -122.538243 326 6007ft 220kts
07-Apr-20 14:53 47.593179 -122.561084 356 5965ft 220kts
07-Apr-20 14:54 47.621851 -122.534914 44 4728ft 217kts
07-Apr-20 14:56 47.655174 -122.483248 45 2635ft 214kts
07-Apr-20 14:56 47.666608 -122.427700 122 2527ft 216kts
07-Apr-20 14:57 47.624852 -122.382810 150 1947ft 197kts
07-Apr-20 14:58 47.585086 -122.349147 149 1022ft 123kts
07-Apr-20 14:59 47.555704 -122.324234 150 387ft 121kts
07-Apr-20 15:00 47.530639 -122.302964 149 19ft 13kts
07-Apr-20 15:01 47.532069 -122.301210 331 22ft 12kts
07-Apr-20 15:02 47.537128 -122.305371 49 23ft 5kts
07-Apr-20 15:03 47.536711 -122.304691 162 23ft 0kts

Navigation Log

Ident Type
Flight plan parsing failed, navigation log unavailable